Time;durP1;ratioP1;P1;durP2;ratioP2;P2;SDS_P1;SDS_P2;PMS_P1;PMS_P2;Temp;Humidity;BMP_temperature;BMP_pressure;BME280_temperature;BME280_humidity;BME280_pressure;Samples;Min_cycle;Max_cycle;Signal;HPM_P1;HPM_P2
2021/11/06 00:02:26;;;;;;;3.53;0.55;;;21.40;53.10;;;;;;6257425;28;20060;-66
2021/11/06 00:05:26;;;;;;;0.47;0.47;;;21.40;53.10;;;;;;6244572;28;20100;-66
2021/11/06 00:08:27;;;;;;;0.38;0.30;;;21.40;53.10;;;;;;6263476;28;20115;-65
2021/11/06 00:11:28;;;;;;;0.52;0.40;;;21.40;53.10;;;;;;6269072;28;20110;-65
2021/11/06 00:14:28;;;;;;;0.75;0.40;;;21.40;53.10;;;;;;6268202;28;20047;-65
2021/11/06 00:17:29;;;;;;;1.05;0.50;;;21.40;53.10;;;;;;6268047;28;20107;-65
2021/11/06 00:20:31;;;;;;;0.43;0.40;;;21.40;53.10;;;;;;6267802;28;20115;-66
2021/11/06 00:23:31;;;;;;;0.60;0.40;;;21.40;53.10;;;;;;6268972;28;20078;-65
2021/11/06 00:26:32;;;;;;;0.45;0.38;;;21.40;53.10;;;;;;6268702;28;20375;-65
2021/11/06 00:29:32;;;;;;;0.22;0.20;;;21.40;53.10;;;;;;6263732;28;20027;-66
2021/11/06 00:32:34;;;;;;;0.57;0.40;;;21.40;53.10;;;;;;6251499;28;20038;-65
2021/11/06 00:35:35;;;;;;;1.65;0.50;;;21.40;53.10;;;;;;6244682;28;20033;-65
2021/11/06 00:38:35;;;;;;;0.43;0.40;;;21.40;53.10;;;;;;6268802;28;20027;-65
2021/11/06 00:41:36;;;;;;;0.60;0.40;;;21.40;53.10;;;;;;6268609;28;20622;-65
2021/11/06 00:44:37;;;;;;;0.40;0.40;;;21.40;53.10;;;;;;6268791;28;20360;-65
2021/11/06 00:47:38;;;;;;;0.68;0.50;;;21.40;53.10;;;;;;6252440;28;20025;-66
2021/11/06 00:50:39;;;;;;;0.50;0.38;;;21.40;53.10;;;;;;6243154;28;20031;-66
2021/11/06 00:53:40;;;;;;;0.30;0.30;;;21.40;53.10;;;;;;6243722;28;20022;-66
2021/11/06 00:56:40;;;;;;;1.40;0.40;;;21.40;53.10;;;;;;6243677;28;20029;-66
2021/11/06 00:59:41;;;;;;;0.30;0.30;;;21.40;53.10;;;;;;6243482;28;20028;-67
2021/11/06 01:02:42;;;;;;;0.68;0.50;;;21.40;53.10;;;;;;6256883;28;20457;-66
2021/11/06 01:05:43;;;;;;;0.50;0.50;;;21.40;53.10;;;;;;6267529;28;20057;-66
2021/11/06 01:08:44;;;;;;;0.43;0.30;;;21.40;53.10;;;;;;6267661;28;20033;-66
2021/11/06 01:11:45;;;;;;;0.65;0.30;;;21.40;53.10;;;;;;6262157;28;20461;-67
2021/11/06 01:14:45;;;;;;;0.47;0.47;;;21.40;53.10;;;;;;6242896;28;20104;-66
2021/11/06 01:17:46;;;;;;;0.57;0.40;;;21.40;53.20;;;;;;6242421;28;20482;-66
2021/11/06 01:20:47;;;;;;;1.05;0.50;;;21.40;53.10;;;;;;6241863;28;20399;-66
2021/11/06 01:23:48;;;;;;;0.30;0.30;;;21.40;53.10;;;;;;6262244;28;20040;-66
2021/11/06 01:26:48;;;;;;;1.13;0.52;;;21.40;53.10;;;;;;6266931;28;20039;-66
2021/11/06 01:29:49;;;;;;;0.57;0.50;;;21.40;53.10;;;;;;6258110;28;20036;-68
2021/11/06 01:32:50;;;;;;;0.70;0.45;;;21.30;53.10;;;;;;6249474;28;20064;-66
2021/11/06 01:35:50;;;;;;;0.55;0.38;;;21.40;53.20;;;;;;6242829;28;20044;-66
2021/11/06 01:38:51;;;;;;;0.88;0.50;;;21.40;53.10;;;;;;6242594;28;20109;-66
2021/11/06 01:41:52;;;;;;;0.70;0.47;;;21.40;53.20;;;;;;6241761;28;20040;-66
2021/11/06 01:44:53;;;;;;;0.63;0.40;;;21.30;53.10;;;;;;6242679;28;20021;-66
2021/11/06 01:47:53;;;;;;;1.17;0.47;;;21.40;53.10;;;;;;6259684;28;20399;-66
2021/11/06 01:50:55;;;;;;;0.50;0.47;;;21.40;53.10;;;;;;6265941;28;20029;-66
2021/11/06 01:53:56;;;;;;;0.40;0.40;;;21.40;53.10;;;;;;6265319;28;20506;-66
2021/11/06 01:56:56;;;;;;;1.45;0.68;;;21.40;53.10;;;;;;6258313;28;20026;-66
2021/11/06 01:59:58;;;;;;;0.30;0.30;;;21.30;53.10;;;;;;6246825;28;20045;-69
2021/11/06 02:02:58;;;;;;;0.68;0.32;;;21.40;53.10;;;;;;6263128;28;20021;-66
2021/11/06 02:05:59;;;;;;;0.63;0.30;;;21.40;53.10;;;;;;6271372;28;20437;-66
2021/11/06 02:09:00;;;;;;;0.85;0.63;;;21.30;53.10;;;;;;6271301;28;20596;-66
2021/11/06 02:12:00;;;;;;;0.40;0.40;;;21.30;53.10;;;;;;6270886;28;20490;-66
2021/11/06 02:15:01;;;;;;;2.35;0.50;;;21.30;53.00;;;;;;6271089;28;20458;-67
2021/11/06 02:18:03;;;;;;;1.17;0.50;;;21.30;53.10;;;;;;6253279;28;20539;-67
2021/11/06 02:21:06;;;;;;;0.98;0.52;;;21.30;53.00;;;;;;6221790;28;20048;-67
2021/11/06 02:24:07;;;;;;;0.77;0.50;;;21.30;53.10;;;;;;6256980;28;20486;-66
2021/11/06 02:27:08;;;;;;;0.55;0.40;;;21.40;53.10;;;;;;6264928;28;20029;-66
2021/11/06 02:30:11;;;;;;;1.95;0.50;;;21.30;53.10;;;;;;6260683;28;20030;-66
2021/11/06 02:33:12;;;;;;;1.33;0.60;;;21.30;53.00;;;;;;6245453;28;20021;-66
2021/11/06 02:36:13;;;;;;;0.73;0.40;;;21.40;53.10;;;;;;6250535;28;20028;-67
2021/11/06 02:39:14;;;;;;;0.60;0.40;;;21.30;53.10;;;;;;6269075;28;20070;-67
2021/11/06 02:42:15;;;;;;;1.00;0.50;;;21.30;53.10;;;;;;6256957;28;20076;-66
2021/11/06 02:45:15;;;;;;;0.70;0.30;;;21.30;53.10;;;;;;6246317;28;20475;-66
2021/11/06 02:48:16;;;;;;;0.57;0.38;;;21.30;53.00;;;;;;6266722;28;20469;-66
2021/11/06 02:51:17;;;;;;;0.75;0.50;;;21.30;53.10;;;;;;6270093;28;20029;-67
2021/11/06 02:54:17;;;;;;;0.50;0.40;;;21.30;53.00;;;;;;6270458;28;20234;-67
2021/11/06 02:57:18;;;;;;;0.65;0.40;;;21.40;53.10;;;;;;6258818;28;20036;-67
2021/11/06 03:00:19;;;;;;;0.65;0.50;;;21.40;53.10;;;;;;6245601;28;20490;-67
2021/11/06 03:03:20;;;;;;;1.23;0.55;;;21.30;53.10;;;;;;6245108;28;20410;-67
2021/11/06 03:06:20;;;;;;;0.30;0.30;;;21.30;53.00;;;;;;6246089;28;20112;-67
2021/11/06 03:09:23;;;;;;;0.43;0.40;;;21.30;53.00;;;;;;6269741;28;20036;-66
2021/11/06 03:12:25;;;;;;;0.68;0.35;;;21.30;53.00;;;;;;6268188;28;20048;-66
2021/11/06 03:15:26;;;;;;;0.40;0.40;;;21.30;53.10;;;;;;6270402;28;20017;-66
2021/11/06 03:18:27;;;;;;;0.95;0.43;;;21.30;53.10;;;;;;6257793;28;20422;-66
2021/11/06 03:21:28;;;;;;;1.05;0.70;;;21.30;53.00;;;;;;6244675;28;20534;-66
2021/11/06 03:24:29;;;;;;;1.25;0.50;;;21.30;53.00;;;;;;6244899;28;20025;-66
2021/11/06 03:27:30;;;;;;;0.85;0.52;;;21.30;53.00;;;;;;6267150;28;20036;-67
2021/11/06 03:30:30;;;;;;;0.88;0.40;;;21.30;53.00;;;;;;6257442;28;20561;-67
2021/11/06 03:33:31;;;;;;;0.75;0.50;;;21.30;53.00;;;;;;6250808;28;20036;-66
2021/11/06 03:36:33;;;;;;;0.70;0.50;;;21.30;53.00;;;;;;6252992;28;20079;-66
2021/11/06 03:39:35;;;;;;;0.40;0.40;;;21.30;53.00;;;;;;6269406;28;20040;-67
2021/11/06 03:42:36;;;;;;;2.28;0.47;;;21.30;53.00;;;;;;6268960;28;20025;-67
2021/11/06 03:45:37;;;;;;;0.75;0.52;;;21.30;53.10;;;;;;6257822;28;20430;-67
2021/11/06 03:48:37;;;;;;;1.30;0.70;;;21.30;53.00;;;;;;6244481;28;20057;-67
2021/11/06 03:51:38;;;;;;;1.17;0.68;;;21.30;53.00;;;;;;6242698;28;20401;-66
2021/11/06 03:54:38;;;;;;;0.63;0.50;;;21.30;53.00;;;;;;6244524;28;20112;-67
2021/11/06 03:57:39;;;;;;;0.98;0.40;;;21.30;53.00;;;;;;6244180;28;20017;-67
2021/11/06 04:00:43;;;;;;;0.70;0.47;;;21.30;53.10;;;;;;6243250;28;20126;-67
2021/11/06 04:03:44;;;;;;;1.75;0.50;;;21.30;53.10;;;;;;6266416;28;20048;-67
2021/11/06 04:06:45;;;;;;;1.08;0.47;;;21.30;53.10;;;;;;6261832;28;20033;-66
2021/11/06 04:09:45;;;;;;;0.65;0.45;;;21.30;53.10;;;;;;6244725;28;20026;-67
2021/11/06 04:12:46;;;;;;;0.25;0.25;;;21.30;53.10;;;;;;6254521;28;20037;-66
2021/11/06 04:15:46;;;;;;;1.25;0.52;;;21.30;53.10;;;;;;6268418;28;20033;-67
2021/11/06 04:18:47;;;;;;;0.90;0.50;;;21.30;53.10;;;;;;6244290;28;20026;-67
2021/11/06 04:21:48;;;;;;;0.60;0.40;;;21.30;53.10;;;;;;6221132;28;20754;-67
2021/11/06 04:24:48;;;;;;;0.63;0.40;;;21.30;53.10;;;;;;6268381;28;20038;-66
2021/11/06 04:27:49;;;;;;;0.75;0.40;;;21.30;53.00;;;;;;6267802;28;20025;-66
2021/11/06 04:30:50;;;;;;;0.95;0.50;;;21.30;53.10;;;;;;6251926;28;20108;-66
2021/11/06 04:33:51;;;;;;;0.57;0.40;;;21.30;53.10;;;;;;6243242;28;20021;-66
2021/11/06 04:36:51;;;;;;;0.95;0.50;;;21.30;53.00;;;;;;6253989;28;20021;-66
2021/11/06 04:39:52;;;;;;;0.77;0.40;;;21.30;53.00;;;;;;6268409;28;20056;-68
2021/11/06 04:42:52;;;;;;;1.58;0.60;;;21.30;53.10;;;;;;6248950;28;20029;-66
2021/11/06 04:45:53;;;;;;;0.50;0.50;;;21.30;53.00;;;;;;6244495;28;20037;-67
2021/11/06 04:48:54;;;;;;;0.93;0.50;;;21.30;53.00;;;;;;6267689;28;20025;-68
2021/11/06 04:51:54;;;;;;;0.40;0.40;;;21.30;53.10;;;;;;6265907;28;20483;-66
2021/11/06 04:54:55;;;;;;;0.80;0.45;;;21.30;53.00;;;;;;6267698;28;20048;-67
2021/11/06 04:57:56;;;;;;;1.17;0.57;;;21.30;53.00;;;;;;6250717;28;20021;-66
2021/11/06 05:00:56;;;;;;;1.73;0.60;;;21.30;53.00;;;;;;6244399;28;20036;-65
2021/11/06 05:03:57;;;;;;;0.80;0.50;;;21.30;53.00;;;;;;6243880;28;20041;-65
2021/11/06 05:06:57;;;;;;;0.77;0.43;;;21.30;53.00;;;;;;6249453;28;20024;-65
2021/11/06 05:09:58;;;;;;;1.55;0.70;;;21.30;53.00;;;;;;6268871;28;20025;-66
2021/11/06 05:12:59;;;;;;;0.40;0.40;;;21.30;53.00;;;;;;6236963;28;20042;-66
2021/11/06 05:15:59;;;;;;;0.68;0.40;;;21.30;53.10;;;;;;6217638;28;20076;-65
2021/11/06 05:19:00;;;;;;;0.70;0.47;;;21.30;53.10;;;;;;6247263;28;20083;-65
2021/11/06 05:22:00;;;;;;;1.02;0.57;;;21.30;53.00;;;;;;6237578;28;20053;-66
2021/11/06 05:25:02;;;;;;;1.50;0.77;;;21.30;53.00;;;;;;6225125;28;20082;-65
2021/11/06 05:28:03;;;;;;;1.85;0.70;;;21.30;53.00;;;;;;6244020;28;20400;-65
2021/11/06 05:31:04;;;;;;;0.98;0.50;;;21.30;53.10;;;;;;6242991;28;20033;-65
2021/11/06 05:34:05;;;;;;;0.88;0.60;;;21.30;53.00;;;;;;6248724;28;20427;-66
2021/11/06 05:37:06;;;;;;;0.80;0.60;;;21.30;53.00;;;;;;6248316;28;20025;-65
2021/11/06 05:40:08;;;;;;;1.00;0.45;;;21.30;53.00;;;;;;6248688;28;20096;-66
2021/11/06 05:43:08;;;;;;;1.02;0.60;;;21.30;53.00;;;;;;6248183;28;20021;-64
2021/11/06 05:46:09;;;;;;;1.27;0.57;;;21.30;53.00;;;;;;6265223;28;20041;-65
2021/11/06 05:49:10;;;;;;;1.02;0.50;;;21.30;53.00;;;;;;6246969;28;20026;-67
2021/11/06 05:52:11;;;;;;;0.73;0.45;;;21.30;53.00;;;;;;6258914;28;20547;-64
2021/11/06 05:55:15;;;;;;;0.88;0.50;;;21.30;53.00;;;;;;6271878;28;20116;-66
2021/11/06 05:58:16;;;;;;;0.97;0.50;;;21.30;53.00;;;;;;6272467;28;20073;-64
2021/11/06 06:01:16;;;;;;;1.15;0.68;;;21.30;52.90;;;;;;6268040;28;20438;-67
2021/11/06 06:04:17;;;;;;;0.80;0.40;;;21.30;53.00;;;;;;6273062;28;20025;-65
2021/11/06 06:07:18;;;;;;;0.57;0.50;;;21.30;52.90;;;;;;6264481;28;20060;-66
2021/11/06 06:10:19;;;;;;;1.40;0.70;;;21.30;52.90;;;;;;6247476;28;20030;-66
2021/11/06 06:13:20;;;;;;;0.95;0.43;;;21.30;52.90;;;;;;6264128;28;20053;-65
2021/11/06 06:16:20;;;;;;;0.45;0.40;;;21.30;52.90;;;;;;6273139;28;20013;-65
2021/11/06 06:19:21;;;;;;;0.65;0.55;;;21.30;52.90;;;;;;6248830;28;20025;-65
2021/11/06 06:22:23;;;;;;;0.57;0.47;;;21.30;52.90;;;;;;6246454;28;20072;-64
2021/11/06 06:25:24;;;;;;;0.68;0.50;;;21.30;52.90;;;;;;6247678;28;20026;-66
2021/11/06 06:28:25;;;;;;;1.80;0.50;;;21.30;52.90;;;;;;6271127;28;20033;-66
2021/11/06 06:31:27;;;;;;;1.00;0.65;;;21.30;52.90;;;;;;6245429;28;20090;-64
2021/11/06 06:34:28;;;;;;;1.20;0.50;;;21.30;52.80;;;;;;6248583;28;20029;-65
2021/11/06 06:37:28;;;;;;;0.40;0.40;;;21.30;52.90;;;;;;6244367;28;20077;-66
2021/11/06 06:40:29;;;;;;;0.57;0.40;;;21.30;52.90;;;;;;6222116;28;20080;-65
2021/11/06 06:43:30;;;;;;;0.75;0.45;;;21.30;52.90;;;;;;6266794;28;20580;-65
2021/11/06 06:46:31;;;;;;;0.93;0.60;;;21.30;52.90;;;;;;6271783;28;20029;-65
2021/11/06 06:49:32;;;;;;;0.60;0.50;;;21.30;52.90;;;;;;6271487;28;20021;-67
2021/11/06 06:52:33;;;;;;;0.93;0.63;;;21.30;52.80;;;;;;6270438;28;20064;-65
2021/11/06 06:55:35;;;;;;;1.48;0.50;;;21.30;52.90;;;;;;6270902;28;20047;-66
2021/11/06 06:58:36;;;;;;;1.27;0.55;;;21.30;52.80;;;;;;6269228;28;20104;-66
2021/11/06 07:01:37;;;;;;;0.98;0.52;;;21.30;52.90;;;;;;6270647;28;20028;-66
2021/11/06 07:04:38;;;;;;;1.50;0.63;;;21.30;52.90;;;;;;6271235;28;20021;-66
2021/11/06 07:07:39;;;;;;;0.98;0.70;;;21.30;52.80;;;;;;6271240;28;20017;-66
2021/11/06 07:10:39;;;;;;;1.63;0.43;;;21.30;52.90;;;;;;6270595;28;20517;-66
2021/11/06 07:13:41;;;;;;;1.05;0.50;;;21.30;52.90;;;;;;6268908;28;20052;-66
2021/11/06 07:16:42;;;;;;;0.88;0.60;;;21.30;52.90;;;;;;6269551;28;20391;-66
2021/11/06 07:19:44;;;;;;;1.15;0.60;;;21.30;52.90;;;;;;6247915;28;20151;-66
2021/11/06 07:22:44;;;;;;;0.70;0.60;;;21.30;52.90;;;;;;6244859;28;20112;-66
2021/11/06 07:25:45;;;;;;;1.60;0.63;;;21.30;52.90;;;;;;6251273;28;20044;-66
2021/11/06 07:28:46;;;;;;;2.00;0.90;;;21.30;53.50;;;;;;6245209;28;20055;-66
2021/11/06 07:31:46;;;;;;;1.50;0.70;;;21.30;52.80;;;;;;6232220;28;20151;-66
2021/11/06 07:34:47;;;;;;;0.50;0.40;;;21.30;52.90;;;;;;6243877;28;20074;-66
2021/11/06 07:37:47;;;;;;;0.68;0.45;;;21.30;53.00;;;;;;6244945;28;20105;-66
2021/11/06 07:40:48;;;;;;;1.00;0.40;;;21.30;52.90;;;;;;6246630;28;20038;-66
2021/11/06 07:43:49;;;;;;;1.15;0.70;;;21.30;52.90;;;;;;6269423;28;20104;-66
2021/11/06 07:46:50;;;;;;;1.48;0.45;;;21.30;52.80;;;;;;6269199;28;20087;-66
2021/11/06 07:49:51;;;;;;;0.88;0.52;;;21.30;52.90;;;;;;6269312;28;20083;-67
2021/11/06 07:52:51;;;;;;;0.77;0.50;;;21.30;52.80;;;;;;6269303;28;20111;-66
2021/11/06 07:55:52;;;;;;;0.85;0.60;;;21.30;52.80;;;;;;6268370;28;20028;-66
2021/11/06 07:58:53;;;;;;;0.70;0.50;;;21.30;52.90;;;;;;6218780;28;20017;-66
2021/11/06 08:01:55;;;;;;;1.08;0.60;;;21.30;52.80;;;;;;6234631;28;20032;-66
2021/11/06 08:04:55;;;;;;;1.08;0.50;;;21.30;52.80;;;;;;6269076;28;20036;-66
2021/11/06 08:07:56;;;;;;;1.42;0.60;;;21.30;52.80;;;;;;6269605;28;20025;-67
2021/11/06 08:10:58;;;;;;;1.02;0.60;;;21.30;52.90;;;;;;6269397;28;20029;-66
2021/11/06 08:13:59;;;;;;;0.80;0.52;;;21.30;52.80;;;;;;6269189;28;20449;-66
2021/11/06 08:17:00;;;;;;;1.83;0.70;;;21.30;52.80;;;;;;6268580;28;20078;-66
2021/11/06 08:20:01;;;;;;;0.98;0.47;;;21.30;52.80;;;;;;6220616;28;20022;-66
2021/11/06 08:23:03;;;;;;;1.42;0.70;;;21.30;52.80;;;;;;6231957;28;20479;-66
2021/11/06 08:26:04;;;;;;;0.68;0.50;;;21.30;52.70;;;;;;6255589;28;20032;-66
2021/11/06 08:29:05;;;;;;;0.65;0.57;;;21.30;52.70;;;;;;6263259;28;20056;-66
2021/11/06 08:32:07;;;;;;;0.80;0.45;;;21.30;52.70;;;;;;6246094;28;20025;-66
2021/11/06 08:35:09;;;;;;;0.50;0.45;;;21.30;52.70;;;;;;6268209;28;20072;-66
2021/11/06 08:38:11;;;;;;;1.98;0.45;;;21.30;52.70;;;;;;6267992;28;20017;-66
2021/11/06 08:41:12;;;;;;;0.88;0.50;;;21.30;52.80;;;;;;6263401;28;20475;-66
2021/11/06 08:44:17;;;;;;;0.93;0.60;;;21.30;52.70;;;;;;6243065;28;20082;-66
2021/11/06 08:47:18;;;;;;;1.40;0.50;;;21.30;52.70;;;;;;6243304;28;20063;-67
2021/11/06 08:50:22;;;;;;;4.10;1.00;;;21.30;52.80;;;;;;6243115;28;20022;-66
2021/11/06 08:53:23;;;;;;;1.33;0.60;;;21.30;52.70;;;;;;6264830;28;20025;-66
2021/11/06 08:56:28;;;;;;;0.60;0.47;;;21.30;52.80;;;;;;6263661;28;20403;-66
2021/11/06 08:59:29;;;;;;;0.65;0.50;;;21.30;52.70;;;;;;6243204;28;20021;-66
2021/11/06 09:02:30;;;;;;;1.13;0.52;;;21.30;52.70;;;;;;6242605;28;20103;-66
2021/11/06 09:05:31;;;;;;;1.23;0.60;;;21.30;52.60;;;;;;6243051;28;20514;-66
2021/11/06 09:08:35;;;;;;;0.50;0.40;;;21.30;52.70;;;;;;6232855;28;20026;-66
2021/11/06 09:11:37;;;;;;;1.30;0.63;;;21.30;52.70;;;;;;6219993;28;20049;-66
2021/11/06 09:14:39;;;;;;;1.13;0.60;;;21.30;52.60;;;;;;6269677;28;20032;-65
2021/11/06 09:17:41;;;;;;;0.55;0.55;;;21.30;52.60;;;;;;6261116;28;20397;-64
2021/11/06 09:20:41;;;;;;;1.05;0.60;;;21.30;52.60;;;;;;6243191;28;20033;-65
2021/11/06 09:23:42;;;;;;;1.00;0.50;;;21.30;52.70;;;;;;6242636;28;20568;-65
2021/11/06 09:26:43;;;;;;;1.13;0.60;;;21.30;52.70;;;;;;6252883;28;20166;-65
2021/11/06 09:29:43;;;;;;;0.57;0.50;;;21.30;52.60;;;;;;6261684;28;20033;-65
2021/11/06 09:32:44;;;;;;;0.90;0.45;;;21.30;52.60;;;;;;6264037;28;20463;-67
2021/11/06 09:35:46;;;;;;;1.42;0.60;;;21.30;52.60;;;;;;6267267;28;20271;-65
2021/11/06 09:38:46;;;;;;;0.93;0.50;;;21.30;52.70;;;;;;6267514;28;20029;-64
2021/11/06 09:41:48;;;;;;;0.90;0.60;;;21.30;52.70;;;;;;6267080;28;20059;-66
2021/11/06 09:44:50;;;;;;;0.57;0.50;;;21.30;52.70;;;;;;6267925;28;20064;-66
2021/11/06 09:47:52;;;;;;;1.05;0.63;;;21.30;52.70;;;;;;6249806;28;20022;-66
2021/11/06 09:50:57;;;;;;;0.80;0.60;;;21.30;52.60;;;;;;6243905;28;20021;-67
2021/11/06 09:53:57;;;;;;;;;;;21.30;52.70;;;;;;6267475;28;20029;-67
2021/11/06 09:56:58;;;;;;;1.15;0.50;;;21.30;52.70;;;;;;6265914;28;20002;-67
2021/11/06 09:59:59;;;;;;;0.68;0.50;;;21.30;52.60;;;;;;6267135;28;20074;-66
2021/11/06 10:03:00;;;;;;;0.77;0.50;;;21.30;52.60;;;;;;6267209;28;20029;-66
2021/11/06 10:06:02;;;;;;;1.17;0.50;;;21.30;52.70;;;;;;6266896;28;20077;-67
2021/11/06 10:09:08;;;;;;;0.88;0.50;;;21.30;52.70;;;;;;6244266;28;20114;-66
2021/11/06 10:12:09;;;;;;;0.40;0.40;;;21.30;52.70;;;;;;6260494;28;20049;-67
2021/11/06 10:15:10;;;;;;;0.82;0.45;;;21.30;52.70;;;;;;6242315;28;20109;-66
2021/11/06 10:18:20;;;;;;;1.05;0.52;;;21.30;52.70;;;;;;6247720;28;20408;-67
2021/11/06 10:21:25;;;;;;;1.17;0.65;;;21.30;52.70;;;;;;6247276;28;20060;-66
2021/11/06 10:24:50;;;;;;;0.57;0.32;;;21.30;52.70;;;;;;6246851;28;20475;-67
2021/11/06 10:27:58;;;;;;;1.10;0.57;;;21.30;52.70;;;;;;6267571;28;20501;-66
2021/11/06 10:31:02;;;;;;;0.68;0.43;;;21.30;52.70;;;;;;6246937;28;20029;-69
2021/11/06 10:34:11;;;;;;;0.40;0.40;;;21.30;52.70;;;;;;6271381;28;20029;-67
2021/11/06 10:37:12;;;;;;;1.95;0.50;;;21.30;52.80;;;;;;6271429;28;20103;-67
2021/11/06 10:40:14;;;;;;;0.85;0.60;;;21.30;52.70;;;;;;6271190;28;20428;-67
2021/11/06 10:43:17;;;;;;;1.40;0.50;;;21.30;52.80;;;;;;6249156;28;20463;-67
2021/11/06 10:46:25;;;;;;;1.02;0.45;;;21.30;52.80;;;;;;6250877;28;20100;-66
2021/11/06 10:49:33;;;;;;;1.08;0.43;;;21.30;52.70;;;;;;6270666;28;20028;-67
2021/11/06 10:52:46;;;;;;;0.52;0.52;;;21.30;52.70;;;;;;6270684;28;20049;-68
2021/11/06 10:55:46;;;;;;;1.63;0.50;;;21.30;52.80;;;;;;6270915;28;20378;-66
2021/11/06 10:58:50;;;;;;;0.85;0.47;;;21.30;52.80;;;;;;6270935;28;20028;-66
2021/11/06 11:01:53;;;;;;;0.77;0.50;;;21.30;52.70;;;;;;6263770;28;20073;-66
2021/11/06 11:04:54;;;;;;;0.68;0.45;;;21.30;52.70;;;;;;6256239;28;20433;-66
2021/11/06 11:08:03;;;;;;;0.85;0.47;;;21.30;52.70;;;;;;6255827;28;20059;-66
2021/11/06 11:11:06;;;;;;;0.52;0.30;;;21.30;52.70;;;;;;6246462;28;20049;-66
2021/11/06 11:14:29;;;;;;;1.08;0.50;;;21.30;52.70;;;;;;6236268;28;20554;-66
2021/11/06 11:17:41;;;;;;;0.80;0.47;;;21.30;52.70;;;;;;6236532;28;20029;-67
2021/11/06 11:20:42;;;;;;;0.90;0.70;;;21.30;52.70;;;;;;6245477;28;20382;-67
2021/11/06 11:23:48;;;;;;;1.58;0.45;;;21.30;52.80;;;;;;6264839;28;20032;-67
2021/11/06 11:26:51;;;;;;;0.73;0.40;;;21.30;52.70;;;;;;6270265;28;20051;-66
2021/11/06 11:29:51;;;;;;;0.43;0.43;;;21.30;52.70;;;;;;6261890;28;20029;-66
2021/11/06 11:32:52;;;;;;;0.60;0.50;;;21.30;53.40;;;;;;6244524;28;20376;-66
2021/11/06 11:35:55;;;;;;;1.25;0.50;;;21.30;52.70;;;;;;6245158;28;20033;-66
2021/11/06 11:38:56;;;;;;;0.65;0.35;;;21.30;52.70;;;;;;6245197;28;20021;-66
2021/11/06 11:42:28;;;;;;;0.77;0.43;;;21.30;52.70;;;;;;6244811;28;20021;-66
2021/11/06 11:45:45;;;;;;;0.55;0.35;;;21.30;52.70;;;;;;6243649;28;20138;-67
2021/11/06 11:48:53;;;;;;;1.52;0.60;;;21.30;52.70;;;;;;6244723;28;20510;-67
2021/11/06 11:51:53;;;;;;;0.85;0.50;;;21.30;52.70;;;;;;6244230;28;20061;-66
2021/11/06 11:55:14;;;;;;;0.80;0.40;;;21.30;52.70;;;;;;6245191;28;20036;-66
2021/11/06 11:58:23;;;;;;;2.03;0.60;;;21.30;52.70;;;;;;6244786;28;20032;-66
2021/11/06 12:01:24;;;;;;;0.60;0.50;;;21.30;52.60;;;;;;6245997;28;20487;-67
2021/11/06 12:04:27;;;;;;;0.80;0.40;;;21.30;52.70;;;;;;6270647;28;20024;-66
2021/11/06 12:07:29;;;;;;;0.40;0.40;;;21.30;52.60;;;;;;6270443;28;20040;-66
2021/11/06 12:10:32;;;;;;;1.08;0.40;;;21.30;52.70;;;;;;6269926;28;20397;-66
2021/11/06 12:13:33;;;;;;;0.50;0.47;;;21.30;52.70;;;;;;6269462;28;20187;-66
2021/11/06 12:16:45;;;;;;;1.17;0.70;;;21.30;52.70;;;;;;6269014;28;20344;-66
2021/11/06 12:19:53;;;;;;;0.70;0.50;;;21.30;52.70;;;;;;6262310;28;20021;-66
2021/11/06 12:22:53;;;;;;;0.90;0.68;;;21.30;52.70;;;;;;6268085;28;20025;-66
2021/11/06 12:26:13;;;;;;;0.95;0.52;;;21.30;52.70;;;;;;6268899;28;20402;-64
2021/11/06 12:29:19;;;;;;;1.45;0.68;;;21.30;52.70;;;;;;6266928;28;20037;-64
2021/11/06 12:32:27;;;;;;;0.73;0.50;;;21.30;52.70;;;;;;6258502;28;20384;-64
2021/11/06 12:35:29;;;;;;;0.63;0.40;;;21.30;52.70;;;;;;6269966;28;20021;-65
2021/11/06 12:38:34;;;;;;;1.02;0.50;;;21.30;52.70;;;;;;6268960;28;20032;-64
2021/11/06 12:41:38;;;;;;;0.90;0.35;;;21.30;52.70;;;;;;6267130;28;20390;-64
2021/11/06 12:44:52;;;;;;;0.43;0.40;;;21.30;52.70;;;;;;6268982;28;20060;-64
2021/11/06 12:48:18;;;;;;;0.50;0.40;;;21.30;52.70;;;;;;6267935;28;20478;-64
2021/11/06 12:51:27;;;;;;;0.40;0.38;;;21.30;52.80;;;;;;6267469;28;20387;-64
2021/11/06 12:54:27;;;;;;;0.70;0.40;;;21.30;52.70;;;;;;6268126;28;20072;-65
2021/11/06 12:57:34;;;;;;;0.80;0.47;;;21.30;52.80;;;;;;6266516;28;20025;-64
2021/11/06 13:00:40;;;;;;;0.40;0.30;;;21.30;52.70;;;;;;6268513;28;20048;-64
2021/11/06 13:03:46;;;;;;;0.55;0.50;;;21.30;52.60;;;;;;6245192;28;20071;-64
2021/11/06 13:06:49;;;;;;;1.58;0.70;;;21.30;52.70;;;;;;6248634;28;20021;-64
2021/11/06 13:09:50;;;;;;;0.77;0.40;;;21.30;52.70;;;;;;6268715;28;20029;-65
2021/11/06 13:13:17;;;;;;;0.98;0.50;;;21.30;52.60;;;;;;6269030;28;20116;-64
2021/11/06 13:16:20;;;;;;;0.95;0.50;;;21.30;52.70;;;;;;6266819;28;20041;-64
2021/11/06 13:19:52;;;;;;;0.77;0.50;;;21.30;52.60;;;;;;6239731;28;20115;-64
2021/11/06 13:22:57;;;;;;;0.60;0.40;;;21.30;52.60;;;;;;6231985;28;20045;-64
2021/11/06 13:25:58;;;;;;;0.40;0.35;;;21.30;52.60;;;;;;6248086;28;20494;-65
2021/11/06 13:28:59;;;;;;;0.85;0.43;;;21.30;52.60;;;;;;6265727;28;20029;-64
2021/11/06 13:32:04;;;;;;;0.85;0.32;;;21.30;52.60;;;;;;6244188;28;20544;-64
2021/11/06 13:35:17;;;;;;;0.40;0.40;;;21.30;52.60;;;;;;6267621;28;20505;-64
2021/11/06 13:38:29;;;;;;;1.00;0.43;;;21.30;52.60;;;;;;6244406;28;20040;-66
2021/11/06 13:41:31;;;;;;;0.40;0.40;;;21.30;52.60;;;;;;6249677;28;20021;-64
2021/11/06 13:44:33;;;;;;;1.45;0.40;;;21.30;52.60;;;;;;6266136;28;20040;-64
2021/11/06 13:47:43;;;;;;;1.02;0.50;;;21.30;52.60;;;;;;6267636;28;20040;-64
2021/11/06 13:50:43;;;;;;;0.50;0.40;;;21.30;52.60;;;;;;6267365;28;20079;-64
2021/11/06 13:53:53;;;;;;;1.75;0.50;;;21.30;52.50;;;;;;6270698;28;20024;-64
2021/11/06 13:57:12;;;;;;;1.02;0.40;;;21.30;52.60;;;;;;6272073;28;20021;-64
2021/11/06 14:00:13;;;;;;;0.52;0.40;;;21.30;52.50;;;;;;6271893;28;20305;-65
2021/11/06 14:03:15;;;;;;;0.30;0.30;;;21.30;52.60;;;;;;6270171;28;20036;-64
2021/11/06 14:06:16;;;;;;;0.52;0.40;;;21.30;52.60;;;;;;6271675;28;20036;-64
2021/11/06 14:09:19;;;;;;;0.57;0.32;;;21.30;52.50;;;;;;6271352;28;20159;-64
2021/11/06 14:12:32;;;;;;;0.30;0.30;;;21.30;52.60;;;;;;6267110;28;20073;-64
2021/11/06 14:15:38;;;;;;;1.00;0.30;;;21.30;52.60;;;;;;6237351;28;20163;-64
2021/11/06 14:18:42;;;;;;;0.57;0.40;;;21.30;52.70;;;;;;6237588;28;20406;-65
2021/11/06 14:21:47;;;;;;;0.43;0.40;;;21.30;52.60;;;;;;6246591;28;20036;-65
2021/11/06 14:24:48;;;;;;;1.48;0.38;;;21.30;52.60;;;;;;6269832;28;20283;-65
2021/11/06 14:28:04;;;;;;;0.95;0.50;;;21.30;52.70;;;;;;6250742;28;20061;-65
2021/11/06 14:31:05;;;;;;;0.38;0.30;;;21.30;52.70;;;;;;6239655;28;20070;-65
2021/11/06 14:34:36;;;;;;;0.30;0.30;;;21.30;52.70;;;;;;6269518;28;20437;-64
2021/11/06 14:37:37;;;;;;;3.05;0.30;;;21.30;52.70;;;;;;6266762;28;20608;-65
2021/11/06 14:40:38;;;;;;;0.45;0.30;;;21.30;52.80;;;;;;6271113;28;20028;-65
2021/11/06 14:43:56;;;;;;;0.68;0.50;;;21.30;52.70;;;;;;6271200;28;20021;-66
2021/11/06 14:46:59;;;;;;;0.50;0.30;;;21.30;52.80;;;;;;6270850;28;20033;-64
2021/11/06 14:50:02;;;;;;;0.30;0.25;;;21.30;52.70;;;;;;6272403;28;20025;-65
2021/11/06 14:53:18;;;;;;;0.50;0.40;;;21.30;52.70;;;;;;6271188;28;20017;-65
2021/11/06 14:56:39;;;;;;;1.10;0.30;;;21.30;52.80;;;;;;6270706;28;20497;-65
2021/11/06 14:59:40;;;;;;;0.22;0.22;;;21.40;52.80;;;;;;6270919;28;20017;-65
2021/11/06 15:03:00;;;;;;;0.57;0.35;;;21.30;52.70;;;;;;6256874;28;20033;-65
2021/11/06 15:06:09;;;;;;;1.08;0.40;;;21.30;52.70;;;;;;6243872;28;20099;-65
2021/11/06 15:09:09;;;;;;;0.80;0.50;;;21.30;52.70;;;;;;6244451;28;20388;-65
2021/11/06 15:12:10;;;;;;;0.30;0.30;;;21.40;52.80;;;;;;6253123;28;20072;-65
2021/11/06 15:15:12;;;;;;;0.30;0.30;;;21.30;52.70;;;;;;6271476;28;20027;-65
2021/11/06 15:18:14;;;;;;;1.08;0.40;;;21.30;52.70;;;;;;6260042;28;20014;-65
2021/11/06 15:21:15;;;;;;;1.02;0.40;;;21.30;52.70;;;;;;6244094;28;20485;-65
2021/11/06 15:24:17;;;;;;;0.50;0.30;;;21.30;52.70;;;;;;6268747;28;20033;-65
2021/11/06 15:27:18;;;;;;;0.50;0.40;;;21.30;52.70;;;;;;6253391;28;20022;-64
2021/11/06 15:30:20;;;;;;;0.32;0.30;;;21.30;52.70;;;;;;6234115;28;20483;-66
2021/11/06 15:33:22;;;;;;;0.80;0.40;;;21.30;52.70;;;;;;6269419;28;20398;-64
2021/11/06 15:36:22;;;;;;;0.82;0.32;;;21.30;52.70;;;;;;6262849;28;20100;-65
2021/11/06 15:39:23;;;;;;;0.70;0.50;;;21.30;52.70;;;;;;6244586;28;20087;-64
2021/11/06 15:42:23;;;;;;;0.50;0.30;;;21.30;52.70;;;;;;6259157;28;20394;-65
2021/11/06 15:45:26;;;;;;;0.77;0.50;;;21.30;52.70;;;;;;6268358;28;20074;-64
2021/11/06 15:48:28;;;;;;;0.30;0.30;;;21.30;52.70;;;;;;6246032;28;20057;-65
2021/11/06 15:51:43;;;;;;;0.68;0.50;;;21.30;52.70;;;;;;6225612;28;20038;-64
2021/11/06 15:54:44;;;;;;;0.40;0.30;;;21.30;52.70;;;;;;6245403;28;20017;-67